Buoy 32622

sailwx.info

Track history (hours):
 
Tides and Currents Weather Stations Pressure Air Temp Water Temp Dewpoint Dewpoint Depression Visibility Wind Speed Wind Dir Waves Ship Positions

Aadnyj

Last reported at 2014-Oct-21 20:43 UTC. Time now 2014-Oct-21 21:43 UTC.
Position S 18°25' W 160°32'.

Length 56 m.

Type: Towing. MMSI: 413600286.

Water temperature 26.9 ° C

Date/timePositionNaut miles runAvg speedWind from/ knotsBaromVisibWave heightAir tempDewpointWater temp
2014-Oct-21 20:43S 18°25' W 160°32'1 1.0 26.9
2014-Oct-21 19:58S 18°26' W 160°33'1 0.9 26.8
2014-Oct-21 19:04S 18°26' W 160°32'1 0.5 26.7
2014-Oct-21 17:26S 18°27' W 160°32'0 0.4 26.7
2014-Oct-21 16:24S 18°27' W 160°32'0 0.4 26.7
2014-Oct-21 15:50S 18°28' W 160°32'0 0.3 26.7
2014-Oct-21 15:08S 18°28' W 160°31'0 0.5 26.7
2014-Oct-21 14:45S 18°28' W 160°32'0 0.0 26.7
2014-Oct-21 14:42S 18°28' W 160°32'2 4.7 26.7
2014-Oct-21 14:18S 18°29' W 160°30'0 0.0 26.7
2014-Oct-21 12:59S 18°29' W 160°30'0 0.0 26.7
2014-Oct-21 12:42S 18°29' W 160°30'0 0.0 26.7
2014-Oct-21 12:38S 18°29' W 160°30'0 0.0 26.7
2014-Oct-21 10:58S 18°29' W 160°30'1 0.4 26.8
2014-Oct-21 08:45S 18°29' W 160°30'0 0.4 26.8
2014-Oct-21 07:57S 18°29' W 160°30'1 0.9 26.8
2014-Oct-21 07:03S 18°30' W 160°29'0 0.0 26.8
2014-Oct-21 05:07S 18°30' W 160°29'0 1.9 26.9
2014-Oct-21 05:03S 18°30' W 160°29'1 0.6 26.9
2014-Oct-21 03:23S 18°29' W 160°29'2 1.0 26.9
2014-Oct-21 01:47S 18°29' W 160°28'0 0.6 26.9
2014-Oct-21 01:25S 18°29' W 160°27'1 0.5 26.9
2014-Oct-20 23:44S 18°29' W 160°26'1 0.4 26.8
2014-Oct-20 21:08S 18°29' W 160°26'1 5.6 26.7
2014-Oct-20 21:00S 18°30' W 160°25'0 0.0 26.7
2014-Oct-20 20:20S 18°30' W 160°25'0 3.0 26.7
2014-Oct-20 20:15S 18°29' W 160°25'0 0.0 26.7
2014-Oct-20 19:25S 18°29' W 160°25'2 2.2 26.7
2014-Oct-20 18:37S 18°30' W 160°23'1 1.0 26.7
2014-Oct-20 18:02S 18°30' W 160°24'1 0.7 26.7
2014-Oct-20 17:15S 18°30' W 160°23'0 0.6 26.7
2014-Oct-20 16:35S 18°30' W 160°23'0 0.0 26.7
2014-Oct-20 16:22S 18°30' W 160°23'1 1.0 26.7
2014-Oct-20 15:25S 18°30' W 160°22'0 0.0 26.7
2014-Oct-20 14:54S 18°30' W 160°22'1 6.3 26.7
2014-Oct-20 14:45S 18°30' W 160°21'0 0.1 26.7
2014-Oct-20 13:12S 18°30' W 160°21'0 1.1 26.7
2014-Oct-20 12:53S 18°30' W 160°21'0 1.1 26.7
2014-Oct-20 12:50S 18°30' W 160°20'0 1.2 26.7
2014-Oct-20 12:41S 18°30' W 160°20'0 0.1 26.7
2014-Oct-20 11:09S 18°30' W 160°20'1 0.7 26.7
2014-Oct-20 09:10S 18°29' W 160°19'0 1.3 26.7
2014-Oct-20 09:04S 18°29' W 160°19'0 0.1 26.7
2014-Oct-20 08:16S 18°29' W 160°19'1 1.6 26.7
2014-Oct-20 07:25S 18°29' W 160°18'2 2.8 26.7
2014-Oct-20 06:33S 18°28' W 160°15'1 1.4 26.7
2014-Oct-20 05:38S 18°28' W 160°17'1 3.6 26.7
2014-Oct-20 05:16S 18°28' W 160°15'0 0.0 26.8
2014-Oct-20 04:29S 18°28' W 160°15'0 0.2 26.8
2014-Oct-20 03:58S 18°28' W 160°15'1 0.5 26.8
2014-Oct-20 02:47S 18°28' W 160°15'1 1.4 26.8
2014-Oct-20 01:59S 18°28' W 160°14'0 0.6 26.8
2014-Oct-20 01:39S 18°28' W 160°14'0 3.4 26.8
2014-Oct-20 01:33S 18°28' W 160°13'0 7.7 26.8
2014-Oct-20 01:30S 18°28' W 160°14'2 1.4 26.8
2014-Oct-19 23:57S 18°27' W 160°12'1 0.3 26.8
2014-Oct-19 20:37S 18°27' W 160°11'0 0.4 26.6
2014-Oct-19 19:46S 18°27' W 160°11'1 0.7 26.6
2014-Oct-19 18:59S 18°27' W 160°10'1 1.1 26.6
2014-Oct-19 18:30S 18°27' W 160°09'2 3.6 26.6
2014-Oct-19 18:05S 18°26' W 160°08'0 0.0 26.6
2014-Oct-19 16:53S 18°26' W 160°08'0 0.0 26.6
2014-Oct-19 16:52S 18°26' W 160°08'1 0.9 26.6
2014-Oct-19 16:02S 18°26' W 160°07'0 0.6 26.6
2014-Oct-19 15:56S 18°26' W 160°07'1 1.0 26.6
2014-Oct-19 15:10S 18°26' W 160°06'012.5 26.6
2014-Oct-19 15:08S 18°26' W 160°06'0 3.1 26.6
2014-Oct-19 15:00S 18°26' W 160°06'234.8 26.6
2014-Oct-19 14:57S 18°25' W 160°05'1 1.5 26.6
2014-Oct-19 14:20S 18°25' W 160°06'127.5 26.6
2014-Oct-19 14:18S 18°25' W 160°05'0 0.0 26.6
2014-Oct-19 13:24S 18°25' W 160°05'0 0.7 26.6
2014-Oct-19 13:04S 18°25' W 160°05'0 0.0 26.6
2014-Oct-19 12:59S 18°25' W 160°05'112.2 26.6
2014-Oct-19 12:52S 18°24' W 160°03'0 0.0 26.6
2014-Oct-19 11:22S 18°24' W 160°03'1 1.3 26.7
2014-Oct-19 10:14S 18°24' W 160°02'0 0.3 26.7
2014-Oct-19 08:41S 18°24' W 160°01'0 0.4 26.7
2014-Oct-19 07:49S 18°24' W 160°01'1 1.1 26.7
2014-Oct-19 06:55S 18°24' W 160°00'0 0.0 26.7
2014-Oct-19 04:54S 18°24' W 160°00'0 1.0 26.8
2014-Oct-19 04:26S 18°23' W 160°00'1 1.5 26.8
2014-Oct-19 03:46S 18°23' W 159°59'0 0.9 26.9
2014-Oct-19 03:14S 18°23' W 159°59'0 0.0 26.9
2014-Oct-19 03:10S 18°23' W 159°59'1 1.7 26.9
2014-Oct-19 02:46S 18°23' W 159°59'0 0.2 26.9
2014-Oct-19 02:12S 18°23' W 159°59'1 2.8 26.9
2014-Oct-19 01:50S 18°23' W 159°58'112.7 26.9
2014-Oct-19 01:44S 18°21' W 159°58'0 0.0 26.9
2014-Oct-19 00:08S 18°21' W 159°58'3 1.1 26.9
2014-Oct-18 21:00S 18°19' W 159°56'2 2.0 26.9
2014-Oct-18 20:06S 18°18' W 159°54'1 1.2 26.8
2014-Oct-18 19:13S 18°17' W 159°54'1 1.4 26.8
2014-Oct-18 18:27S 18°16' W 159°54'2 1.8 26.8
2014-Oct-18 17:26S 18°16' W 159°52'0 0.0 26.9
2014-Oct-18 17:21S 18°16' W 159°52'2 1.3 26.9
2014-Oct-18 15:44S 18°15' W 159°49'1 1.9 26.9
2014-Oct-18 15:16S 18°15' W 159°49'1 4.8 26.9
2014-Oct-18 15:08S 18°15' W 159°48'0 0.0 26.9
2014-Oct-18 14:43S 18°15' W 159°48'1 1.3 26.9
2014-Oct-18 13:37S 18°15' W 159°47'1 1.6 27.0
2014-Oct-18 13:15S 18°15' W 159°46'0 0.0 27.0
2014-Oct-18 13:10S 18°15' W 159°46'220.3 27.0
2014-Oct-18 13:04S 18°14' W 159°44'0 0.0 27.0
2014-Oct-18 11:30S 18°14' W 159°44'3 1.3 27.1
2014-Oct-18 08:55S 18°15' W 159°40'0 0.0 27.1
2014-Oct-18 08:11S 18°15' W 159°40'0 0.0
2014-Oct-18 08:10S 18°15' W 159°40'1 1.2 27.2
2014-Oct-18 07:15S 18°15' W 159°39'2 0.8 27.2
2014-Oct-18 05:01S 18°16' W 159°38'1 0.8 27.2
2014-Oct-18 03:35S 18°16' W 159°36'0 0.9 27.3
2014-Oct-18 03:15S 18°16' W 159°36'0 0.1 27.3
2014-Oct-18 02:22S 18°16' W 159°36'1 1.3 27.3
2014-Oct-18 01:59S 18°17' W 159°36'0 4.7 27.3
2014-Oct-18 01:56S 18°17' W 159°36'0 0.3 27.3
2014-Oct-18 00:15S 18°17' W 159°36'1 0.4 27.3
2014-Oct-17 21:20S 18°16' W 159°35'0 0.1 27.2
2014-Oct-17 20:27S 18°16' W 159°35'0 0.4 27.2
2014-Oct-17 19:41S 18°16' W 159°35'1 0.9 27.2
2014-Oct-17 18:47S 18°15' W 159°35'0 0.4 27.1
2014-Oct-17 17:56S 18°15' W 159°34'1 0.8 27.1
2014-Oct-17 16:16S 18°14' W 159°34'1 0.8 27.0
2014-Oct-17 15:30S 18°13' W 159°34'0 0.0 27.0
2014-Oct-17 15:27S 18°13' W 159°34'0 0.9 27.0
2014-Oct-17 15:07S 18°13' W 159°34'2 1.6 27.0
2014-Oct-17 13:46S 18°11' W 159°34'1 1.4 27.0
2014-Oct-17 13:24S 18°12' W 159°34'0 0.0 27.0
2014-Oct-17 13:20S 18°12' W 159°34'220.1 27.0
2014-Oct-17 13:15S 18°10' W 159°33'0 0.0 27.0
2014-Oct-17 11:45S 18°10' W 159°33'0 2.7 27.0
2014-Oct-17 11:42S 18°10' W 159°33'4 1.5 27.0
2014-Oct-17 09:15S 18°08' W 159°31'0 0.0 26.9
2014-Oct-17 08:30S 18°08' W 159°31'0 0.5 26.9
2014-Oct-17 07:40S 18°07' W 159°31'0 5.9 26.9
2014-Oct-17 07:37S 18°07' W 159°31'3 3.5 26.9
2014-Oct-17 06:46S 18°05' W 159°29'1 0.3 26.9
2014-Oct-17 04:09S 18°04' W 159°29'0 0.0 26.9
2014-Oct-17 04:00S 18°04' W 159°29'0 0.0 26.9
2014-Oct-17 03:51S 18°04' W 159°29'0 0.0 26.9
2014-Oct-17 02:30S 18°04' W 159°29'1 4.9 26.8
2014-Oct-17 02:16S 18°04' W 159°28'0 0.0 26.9
2014-Oct-17 02:07S 18°04' W 159°28'1 0.9 26.9
2014-Oct-17 00:29S 18°04' W 159°29'2 0.5 26.9
2014-Oct-16 20:46S 18°02' W 159°29'2 2.6 26.4
2014-Oct-16 20:01S 18°01' W 159°31'0 0.1 26.6
2014-Oct-16 19:12S 18°01' W 159°31'0 0.9 26.7
2014-Oct-16 19:08S 18°01' W 159°31'2 0.8 26.7
2014-Oct-16 17:12S 17°59' W 159°31'8 1.0 26.7
2014-Oct-16 08:52S 17°51' W 159°34'2 1.1 26.7
2014-Oct-16 07:11S 17°50' W 159°35'8 1.3 26.7
2014-Oct-16 00:43S 17°42' W 159°37'0 1.7 26.9
2014-Oct-16 00:40S 17°42' W 159°37'4 2.1 26.9
2014-Oct-15 22:56S 17°38' W 159°36'2 0.5 26.9
2014-Oct-15 18:33S 17°36' W 159°35'0 0.0 26.8
2014-Oct-15 17:15S 17°36' W 159°35'1 0.6 26.8
2014-Oct-15 15:59S 17°36' W 159°34'0 2.9 26.9
2014-Oct-15 15:53S 17°35' W 159°35'0 2.4 26.9
2014-Oct-15 15:47S 17°35' W 159°34'0 3.7 26.9
2014-Oct-15 15:42S 17°35' W 159°34'1 0.7 26.9
2014-Oct-15 14:16S 17°34' W 159°35'0 0.0
2014-Oct-15 14:11S 17°34' W 159°35'2 4.3 26.9
2014-Oct-15 13:45S 17°32' W 159°35'2 0.5 26.9
2014-Oct-15 09:13S 17°30' W 159°34'1 1.4 27.1
2014-Oct-15 08:16S 17°30' W 159°32'1 0.7 27.1
2014-Oct-15 07:29S 17°29' W 159°33'2 2.4 27.2
2014-Oct-15 06:38S 17°29' W 159°31'0 0.0 27.2
2014-Oct-15 04:34S 17°28' W 159°31'1 0.6 27.3
2014-Oct-15 03:12S 17°28' W 159°31'1 2.5 27.3
2014-Oct-15 03:00S 17°28' W 159°32'0 0.0 27.4
2014-Oct-15 02:57S 17°28' W 159°32'0 0.8 27.4
2014-Oct-15 02:30S 17°28' W 159°31'3 2.1 27.4
2014-Oct-15 00:54S 17°24' W 159°32'0 0.0 27.4
2014-Oct-15 00:45S 17°24' W 159°32'0 0.0 27.4
2014-Oct-15 00:43S 17°24' W 159°32'0 0.0 27.3
2014-Oct-14 23:09S 17°24' W 159°32'1 0.3 27.3
2014-Oct-14 20:45S 17°24' W 159°32'0 0.0 27.3
2014-Oct-14 20:40S 17°24' W 159°32'1 1.2 27.3
2014-Oct-14 19:52S 17°23' W 159°32'1 0.8 27.2
2014-Oct-14 19:02S 17°23' W 159°32'3 2.8 27.2
2014-Oct-14 18:08S 17°20' W 159°30'0 0.1 27.2
2014-Oct-14 16:10S 17°20' W 159°30'1 0.5 27.2
2014-Oct-14 14:42S 17°20' W 159°30'0 1.3 27.2
2014-Oct-14 14:22S 17°19' W 159°30'1 7.8 27.2
2014-Oct-14 14:13S 17°18' W 159°30'0 0.0 27.2
2014-Oct-14 13:57S 17°18' W 159°30'0 0.0 27.2
2014-Oct-14 12:19S 17°18' W 159°30'0 0.0 27.2
2014-Oct-14 12:16S 17°18' W 159°30'1 0.5 27.2
2014-Oct-14 10:34S 17°17' W 159°30'0 0.0 27.3
2014-Oct-14 10:15S 17°17' W 159°30'2 1.6
2014-Oct-14 08:41S 17°15' W 159°30'1 0.9 27.3
2014-Oct-14 07:53S 17°14' W 159°30'1 1.5 27.3
2014-Oct-14 07:02S 17°13' W 159°29'2 1.3 27.4
2014-Oct-14 05:26S 17°11' W 159°28'0 0.0 27.4
2014-Oct-14 05:21S 17°11' W 159°28'0 0.0 27.4
2014-Oct-14 04:45S 17°11' W 159°28'1 0.8 27.4
2014-Oct-14 03:46S 17°10' W 159°28'0 1.1 27.5
2014-Oct-14 03:39S 17°10' W 159°28'0 0.8 27.5
2014-Oct-14 03:29S 17°10' W 159°28'0 0.8 27.5
2014-Oct-14 03:11S 17°10' W 159°28'0 0.0 27.5
2014-Oct-14 03:09S 17°10' W 159°28'2 4.2 27.5
2014-Oct-14 02:40S 17°08' W 159°27'0 0.0 27.6
2014-Oct-14 01:24S 17°08' W 159°27'0 0.0 27.6
2014-Oct-14 01:00S 17°08' W 159°27'4 1.3 27.5
2014-Oct-13 21:48S 17°04' W 159°26'0 0.0 27.5
2014-Oct-13 21:03S 17°04' W 159°26'1 9.2 27.3
2014-Oct-13 20:57S 17°04' W 159°25'0 0.6 27.3
2014-Oct-13 20:11S 17°04' W 159°25'1 1.6 27.3
2014-Oct-13 19:23S 17°03' W 159°26'1 1.0 27.3
2014-Oct-13 18:30S 17°02' W 159°26'2 1.0 27.3
2014-Oct-13 16:48S 17°00' W 159°26'0 3.7 27.3
2014-Oct-13 16:41S 16°60' W 159°25'0 0.0 27.3
2014-Oct-13 16:13S 16°60' W 159°25'1 1.1 27.4
2014-Oct-13 15:05S 16°59' W 159°25'0 0.0 27.4
2014-Oct-13 14:30S 16°59' W 159°25'3 7.3 27.4
2014-Oct-13 14:06S 16°56' W 159°26'0 0.0 27.4
2014-Oct-13 12:30S 16°56' W 159°26'0 0.0 27.5
2014-Oct-13 12:27S 16°56' W 159°26'0 0.0 27.5
2014-Oct-13 10:46S 16°56' W 159°26'2 1.3 27.6
2014-Oct-13 08:59S 16°54' W 159°28'1 1.4 27.6
2014-Oct-13 08:13S 16°54' W 159°28'2 2.1 27.6
2014-Oct-13 07:22S 16°52' W 159°28'5 1.5 27.6
2014-Oct-13 04:16S 16°48' W 159°30'0 1.2 27.8
2014-Oct-13 04:03S 16°47' W 159°30'0 3.7 27.8
2014-Oct-13 03:59S 16°48' W 159°30'3 4.5 27.8
2014-Oct-13 03:15S 16°44' W 159°29'0 0.0 27.8
2014-Oct-13 03:11S 16°44' W 159°29'0 0.0 27.8
2014-Oct-13 01:38S 16°44' W 159°29'1 2.2 27.9
2014-Oct-13 01:16S 16°44' W 159°30'0 0.0 27.9
2014-Oct-13 01:11S 16°44' W 159°30'2 1.2 27.9
2014-Oct-12 23:29S 16°42' W 159°29'2 0.7 27.8
2014-Oct-12 20:29S 16°40' W 159°30'0 0.5 27.7
2014-Oct-12 19:43S 16°39' W 159°30'0 0.6 27.6
2014-Oct-12 18:53S 16°39' W 159°30'0 3.8 27.6
2014-Oct-12 18:50S 16°39' W 159°30'2 1.0 27.6
2014-Oct-12 17:11S 16°38' W 159°31'0 0.0 27.6
2014-Oct-12 16:24S 16°38' W 159°31'1 0.7 27.6
2014-Oct-12 15:30S 16°37' W 159°32'0 0.0 27.7
2014-Oct-12 14:45S 16°37' W 159°32'0 0.0
2014-Oct-12 14:44S 16°37' W 159°32'0 0.0 27.7
2014-Oct-12 14:16S 16°37' W 159°32'0 0.0 27.7
2014-Oct-12 13:51S 16°37' W 159°32'2 2.2 27.7
2014-Oct-12 13:01S 16°36' W 159°33'2 0.9 27.7
2014-Oct-12 10:57S 16°34' W 159°33'0 0.2 27.7
2014-Oct-12 08:30S 16°33' W 159°33'1 0.8 27.7
2014-Oct-12 07:45S 16°33' W 159°34'0 0.0 27.8
2014-Oct-12 07:44S 16°33' W 159°34'0 0.1 27.8
2014-Oct-12 06:49S 16°33' W 159°34'1 0.6 27.8
2014-Oct-12 05:09S 16°33' W 159°35'1 2.0 27.9
2014-Oct-12 04:45S 16°33' W 159°35'1 2.6 27.9
2014-Oct-12 04:27S 16°33' W 159°35'1 0.8 27.9
2014-Oct-12 03:29S 16°33' W 159°35'1 3.6 27.9
2014-Oct-12 03:08S 16°32' W 159°36'0 0.0 27.9
2014-Oct-12 02:43S 16°32' W 159°36'0 0.0 28.0
2014-Oct-12 01:50S 16°32' W 159°36'0 1.2 28.0
2014-Oct-12 01:27S 16°32' W 159°37'0 1.2 28.0
2014-Oct-12 01:24S 16°32' W 159°37'1 0.9 28.0
2014-Oct-11 23:45S 16°31' W 159°38'2 0.8 27.9
2014-Oct-11 20:49S 16°29' W 159°39'0 0.0 27.8
2014-Oct-11 20:46S 16°29' W 159°39'   27.8
Track history (hours):
 
Tides and Currents Weather Stations Pressure Air Temp Water Temp Dewpoint Dewpoint Depression Visibility Wind Speed Wind Dir Waves Ship Positions

Aadnyj

Last reported at 2014-Oct-21 20:43 UTC. Time now 2014-Oct-21 21:43 UTC.
Position S 18°25' W 160°32'.

Length 56 m.

Type: Towing. MMSI: 413600286.

Water temperature 26.9 ° C

Date/timePositionNaut miles runAvg speedWind from/ knotsBaromVisibWave heightAir tempDewpointWater temp
2014-Oct-21 20:43S 18°25' W 160°32'1 1.0 26.9
2014-Oct-21 19:58S 18°26' W 160°33'1 0.9 26.8
2014-Oct-21 19:04S 18°26' W 160°32'1 0.5 26.7
2014-Oct-21 17:26S 18°27' W 160°32'0 0.4 26.7
2014-Oct-21 16:24S 18°27' W 160°32'0 0.4 26.7
2014-Oct-21 15:50S 18°28' W 160°32'0 0.3 26.7
2014-Oct-21 15:08S 18°28' W 160°31'0 0.5 26.7
2014-Oct-21 14:45S 18°28' W 160°32'0 0.0 26.7
2014-Oct-21 14:42S 18°28' W 160°32'2 4.7 26.7
2014-Oct-21 14:18S 18°29' W 160°30'0 0.0 26.7
2014-Oct-21 12:59S 18°29' W 160°30'0 0.0 26.7
2014-Oct-21 12:42S 18°29' W 160°30'0 0.0 26.7
2014-Oct-21 12:38S 18°29' W 160°30'0 0.0 26.7
2014-Oct-21 10:58S 18°29' W 160°30'1 0.4 26.8
2014-Oct-21 08:45S 18°29' W 160°30'0 0.4 26.8
2014-Oct-21 07:57S 18°29' W 160°30'1 0.9 26.8
2014-Oct-21 07:03S 18°30' W 160°29'0 0.0 26.8
2014-Oct-21 05:07S 18°30' W 160°29'0 1.9 26.9
2014-Oct-21 05:03S 18°30' W 160°29'1 0.6 26.9
2014-Oct-21 03:23S 18°29' W 160°29'2 1.0 26.9
2014-Oct-21 01:47S 18°29' W 160°28'0 0.6 26.9
2014-Oct-21 01:25S 18°29' W 160°27'1 0.5 26.9
2014-Oct-20 23:44S 18°29' W 160°26'1 0.4 26.8
2014-Oct-20 21:08S 18°29' W 160°26'1 5.6 26.7
2014-Oct-20 21:00S 18°30' W 160°25'0 0.0 26.7
2014-Oct-20 20:20S 18°30' W 160°25'0 3.0 26.7
2014-Oct-20 20:15S 18°29' W 160°25'0 0.0 26.7
2014-Oct-20 19:25S 18°29' W 160°25'2 2.2 26.7
2014-Oct-20 18:37S 18°30' W 160°23'1 1.0 26.7
2014-Oct-20 18:02S 18°30' W 160°24'1 0.7 26.7
2014-Oct-20 17:15S 18°30' W 160°23'0 0.6 26.7
2014-Oct-20 16:35S 18°30' W 160°23'0 0.0 26.7
2014-Oct-20 16:22S 18°30' W 160°23'1 1.0 26.7
2014-Oct-20 15:25S 18°30' W 160°22'0 0.0 26.7
2014-Oct-20 14:54S 18°30' W 160°22'1 6.3 26.7
2014-Oct-20 14:45S 18°30' W 160°21'0 0.1 26.7
2014-Oct-20 13:12S 18°30' W 160°21'0 1.1 26.7
2014-Oct-20 12:53S 18°30' W 160°21'0 1.1 26.7
2014-Oct-20 12:50S 18°30' W 160°20'0 1.2 26.7
2014-Oct-20 12:41S 18°30' W 160°20'0 0.1 26.7
2014-Oct-20 11:09S 18°30' W 160°20'1 0.7 26.7
2014-Oct-20 09:10S 18°29' W 160°19'0 1.3 26.7
2014-Oct-20 09:04S 18°29' W 160°19'0 0.1 26.7
2014-Oct-20 08:16S 18°29' W 160°19'1 1.6 26.7
2014-Oct-20 07:25S 18°29' W 160°18'2 2.8 26.7
2014-Oct-20 06:33S 18°28' W 160°15'1 1.4 26.7
2014-Oct-20 05:38S 18°28' W 160°17'1 3.6 26.7
2014-Oct-20 05:16S 18°28' W 160°15'0 0.0 26.8
2014-Oct-20 04:29S 18°28' W 160°15'0 0.2 26.8
2014-Oct-20 03:58S 18°28' W 160°15'1 0.5 26.8
2014-Oct-20 02:47S 18°28' W 160°15'1 1.4 26.8
2014-Oct-20 01:59S 18°28' W 160°14'0 0.6 26.8
2014-Oct-20 01:39S 18°28' W 160°14'0 3.4 26.8
2014-Oct-20 01:33S 18°28' W 160°13'0 7.7 26.8
2014-Oct-20 01:30S 18°28' W 160°14'2 1.4 26.8
2014-Oct-19 23:57S 18°27' W 160°12'1 0.3 26.8
2014-Oct-19 20:37S 18°27' W 160°11'0 0.4 26.6
2014-Oct-19 19:46S 18°27' W 160°11'1 0.7 26.6
2014-Oct-19 18:59S 18°27' W 160°10'1 1.1 26.6
2014-Oct-19 18:30S 18°27' W 160°09'2 3.6 26.6
2014-Oct-19 18:05S 18°26' W 160°08'0 0.0 26.6
2014-Oct-19 16:53S 18°26' W 160°08'0 0.0 26.6
2014-Oct-19 16:52S 18°26' W 160°08'1 0.9 26.6
2014-Oct-19 16:02S 18°26' W 160°07'0 0.6 26.6
2014-Oct-19 15:56S 18°26' W 160°07'1 1.0 26.6
2014-Oct-19 15:10S 18°26' W 160°06'012.5 26.6
2014-Oct-19 15:08S 18°26' W 160°06'0 3.1 26.6
2014-Oct-19 15:00S 18°26' W 160°06'234.8 26.6
2014-Oct-19 14:57S 18°25' W 160°05'1 1.5 26.6
2014-Oct-19 14:20S 18°25' W 160°06'127.5 26.6
2014-Oct-19 14:18S 18°25' W 160°05'0 0.0 26.6
2014-Oct-19 13:24S 18°25' W 160°05'0 0.7 26.6
2014-Oct-19 13:04S 18°25' W 160°05'0 0.0 26.6
2014-Oct-19 12:59S 18°25' W 160°05'112.2 26.6
2014-Oct-19 12:52S 18°24' W 160°03'0 0.0 26.6
2014-Oct-19 11:22S 18°24' W 160°03'1 1.3 26.7
2014-Oct-19 10:14S 18°24' W 160°02'0 0.3 26.7
2014-Oct-19 08:41S 18°24' W 160°01'0 0.4 26.7
2014-Oct-19 07:49S 18°24' W 160°01'1 1.1 26.7
2014-Oct-19 06:55S 18°24' W 160°00'0 0.0 26.7
2014-Oct-19 04:54S 18°24' W 160°00'0 1.0 26.8
2014-Oct-19 04:26S 18°23' W 160°00'1 1.5 26.8
2014-Oct-19 03:46S 18°23' W 159°59'0 0.9 26.9
2014-Oct-19 03:14S 18°23' W 159°59'0 0.0 26.9
2014-Oct-19 03:10S 18°23' W 159°59'1 1.7 26.9
2014-Oct-19 02:46S 18°23' W 159°59'0 0.2 26.9
2014-Oct-19 02:12S 18°23' W 159°59'1 2.8 26.9
2014-Oct-19 01:50S 18°23' W 159°58'112.7 26.9
2014-Oct-19 01:44S 18°21' W 159°58'0 0.0 26.9
2014-Oct-19 00:08S 18°21' W 159°58'3 1.1 26.9
2014-Oct-18 21:00S 18°19' W 159°56'2 2.0 26.9
2014-Oct-18 20:06S 18°18' W 159°54'1 1.2 26.8
2014-Oct-18 19:13S 18°17' W 159°54'1 1.4 26.8
2014-Oct-18 18:27S 18°16' W 159°54'2 1.8 26.8
2014-Oct-18 17:26S 18°16' W 159°52'0 0.0 26.9
2014-Oct-18 17:21S 18°16' W 159°52'2 1.3 26.9
2014-Oct-18 15:44S 18°15' W 159°49'1 1.9 26.9
2014-Oct-18 15:16S 18°15' W 159°49'1 4.8 26.9
2014-Oct-18 15:08S 18°15' W 159°48'0 0.0 26.9
2014-Oct-18 14:43S 18°15' W 159°48'1 1.3 26.9
2014-Oct-18 13:37S 18°15' W 159°47'1 1.6 27.0
2014-Oct-18 13:15S 18°15' W 159°46'0 0.0 27.0
2014-Oct-18 13:10S 18°15' W 159°46'220.3 27.0
2014-Oct-18 13:04S 18°14' W 159°44'0 0.0 27.0
2014-Oct-18 11:30S 18°14' W 159°44'3 1.3 27.1
2014-Oct-18 08:55S 18°15' W 159°40'0 0.0 27.1
2014-Oct-18 08:11S 18°15' W 159°40'0 0.0
2014-Oct-18 08:10S 18°15' W 159°40'1 1.2 27.2
2014-Oct-18 07:15S 18°15' W 159°39'2 0.8 27.2
2014-Oct-18 05:01S 18°16' W 159°38'1 0.8 27.2
2014-Oct-18 03:35S 18°16' W 159°36'0 0.9 27.3
2014-Oct-18 03:15S 18°16' W 159°36'0 0.1 27.3
2014-Oct-18 02:22S 18°16' W 159°36'1 1.3 27.3
2014-Oct-18 01:59S 18°17' W 159°36'0 4.7 27.3
2014-Oct-18 01:56S 18°17' W 159°36'0 0.3 27.3
2014-Oct-18 00:15S 18°17' W 159°36'1 0.4 27.3
2014-Oct-17 21:20S 18°16' W 159°35'0 0.1 27.2
2014-Oct-17 20:27S 18°16' W 159°35'0 0.4 27.2
2014-Oct-17 19:41S 18°16' W 159°35'1 0.9 27.2
2014-Oct-17 18:47S 18°15' W 159°35'0 0.4 27.1
2014-Oct-17 17:56S 18°15' W 159°34'1 0.8 27.1
2014-Oct-17 16:16S 18°14' W 159°34'1 0.8 27.0
2014-Oct-17 15:30S 18°13' W 159°34'0 0.0 27.0
2014-Oct-17 15:27S 18°13' W 159°34'0 0.9 27.0
2014-Oct-17 15:07S 18°13' W 159°34'2 1.6 27.0
2014-Oct-17 13:46S 18°11' W 159°34'1 1.4 27.0
2014-Oct-17 13:24S 18°12' W 159°34'0 0.0 27.0
2014-Oct-17 13:20S 18°12' W 159°34'220.1 27.0
2014-Oct-17 13:15S 18°10' W 159°33'0 0.0 27.0
2014-Oct-17 11:45S 18°10' W 159°33'0 2.7 27.0
2014-Oct-17 11:42S 18°10' W 159°33'4 1.5 27.0
2014-Oct-17 09:15S 18°08' W 159°31'0 0.0 26.9
2014-Oct-17 08:30S 18°08' W 159°31'0 0.5 26.9
2014-Oct-17 07:40S 18°07' W 159°31'0 5.9 26.9
2014-Oct-17 07:37S 18°07' W 159°31'3 3.5 26.9
2014-Oct-17 06:46S 18°05' W 159°29'1 0.3 26.9
2014-Oct-17 04:09S 18°04' W 159°29'0 0.0 26.9
2014-Oct-17 04:00S 18°04' W 159°29'0 0.0 26.9
2014-Oct-17 03:51S 18°04' W 159°29'0 0.0 26.9
2014-Oct-17 02:30S 18°04' W 159°29'1 4.9 26.8
2014-Oct-17 02:16S 18°04' W 159°28'0 0.0 26.9
2014-Oct-17 02:07S 18°04' W 159°28'1 0.9 26.9
2014-Oct-17 00:29S 18°04' W 159°29'2 0.5 26.9
2014-Oct-16 20:46S 18°02' W 159°29'2 2.6 26.4
2014-Oct-16 20:01S 18°01' W 159°31'0 0.1 26.6
2014-Oct-16 19:12S 18°01' W 159°31'0 0.9 26.7
2014-Oct-16 19:08S 18°01' W 159°31'2 0.8 26.7
2014-Oct-16 17:12S 17°59' W 159°31'8 1.0 26.7
2014-Oct-16 08:52S 17°51' W 159°34'2 1.1 26.7
2014-Oct-16 07:11S 17°50' W 159°35'8 1.3 26.7
2014-Oct-16 00:43S 17°42' W 159°37'0 1.7 26.9
2014-Oct-16 00:40S 17°42' W 159°37'4 2.1 26.9
2014-Oct-15 22:56S 17°38' W 159°36'2 0.5 26.9
2014-Oct-15 18:33S 17°36' W 159°35'0 0.0 26.8
2014-Oct-15 17:15S 17°36' W 159°35'1 0.6 26.8
2014-Oct-15 15:59S 17°36' W 159°34'0 2.9 26.9
2014-Oct-15 15:53S 17°35' W 159°35'0 2.4 26.9
2014-Oct-15 15:47S 17°35' W 159°34'0 3.7 26.9
2014-Oct-15 15:42S 17°35' W 159°34'1 0.7 26.9
2014-Oct-15 14:16S 17°34' W 159°35'0 0.0
2014-Oct-15 14:11S 17°34' W 159°35'2 4.3 26.9
2014-Oct-15 13:45S 17°32' W 159°35'2 0.5 26.9
2014-Oct-15 09:13S 17°30' W 159°34'1 1.4 27.1
2014-Oct-15 08:16S 17°30' W 159°32'1 0.7 27.1
2014-Oct-15 07:29S 17°29' W 159°33'2 2.4 27.2
2014-Oct-15 06:38S 17°29' W 159°31'0 0.0 27.2
2014-Oct-15 04:34S 17°28' W 159°31'1 0.6 27.3
2014-Oct-15 03:12S 17°28' W 159°31'1 2.5 27.3
2014-Oct-15 03:00S 17°28' W 159°32'0 0.0 27.4
2014-Oct-15 02:57S 17°28' W 159°32'0 0.8 27.4
2014-Oct-15 02:30S 17°28' W 159°31'3 2.1 27.4
2014-Oct-15 00:54S 17°24' W 159°32'0 0.0 27.4
2014-Oct-15 00:45S 17°24' W 159°32'0 0.0 27.4
2014-Oct-15 00:43S 17°24' W 159°32'0 0.0 27.3
2014-Oct-14 23:09S 17°24' W 159°32'1 0.3 27.3
2014-Oct-14 20:45S 17°24' W 159°32'0 0.0 27.3
2014-Oct-14 20:40S 17°24' W 159°32'1 1.2 27.3
2014-Oct-14 19:52S 17°23' W 159°32'1 0.8 27.2
2014-Oct-14 19:02S 17°23' W 159°32'3 2.8 27.2
2014-Oct-14 18:08S 17°20' W 159°30'0 0.1 27.2
2014-Oct-14 16:10S 17°20' W 159°30'1 0.5 27.2
2014-Oct-14 14:42S 17°20' W 159°30'0 1.3 27.2
2014-Oct-14 14:22S 17°19' W 159°30'1 7.8 27.2
2014-Oct-14 14:13S 17°18' W 159°30'0 0.0 27.2
2014-Oct-14 13:57S 17°18' W 159°30'0 0.0 27.2
2014-Oct-14 12:19S 17°18' W 159°30'0 0.0 27.2
2014-Oct-14 12:16S 17°18' W 159°30'1 0.5 27.2
2014-Oct-14 10:34S 17°17' W 159°30'0 0.0 27.3
2014-Oct-14 10:15S 17°17' W 159°30'2 1.6
2014-Oct-14 08:41S 17°15' W 159°30'1 0.9 27.3
2014-Oct-14 07:53S 17°14' W 159°30'1 1.5 27.3
2014-Oct-14 07:02S 17°13' W 159°29'2 1.3 27.4
2014-Oct-14 05:26S 17°11' W 159°28'0 0.0 27.4
2014-Oct-14 05:21S 17°11' W 159°28'0 0.0 27.4
2014-Oct-14 04:45S 17°11' W 159°28'1 0.8 27.4
2014-Oct-14 03:46S 17°10' W 159°28'0 1.1 27.5
2014-Oct-14 03:39S 17°10' W 159°28'0 0.8 27.5
2014-Oct-14 03:29S 17°10' W 159°28'0 0.8 27.5
2014-Oct-14 03:11S 17°10' W 159°28'0 0.0 27.5
2014-Oct-14 03:09S 17°10' W 159°28'2 4.2 27.5
2014-Oct-14 02:40S 17°08' W 159°27'0 0.0 27.6
2014-Oct-14 01:24S 17°08' W 159°27'0 0.0 27.6
2014-Oct-14 01:00S 17°08' W 159°27'4 1.3 27.5
2014-Oct-13 21:48S 17°04' W 159°26'0 0.0 27.5
2014-Oct-13 21:03S 17°04' W 159°26'1 9.2 27.3
2014-Oct-13 20:57S 17°04' W 159°25'0 0.6 27.3
2014-Oct-13 20:11S 17°04' W 159°25'1 1.6 27.3
2014-Oct-13 19:23S 17°03' W 159°26'1 1.0 27.3
2014-Oct-13 18:30S 17°02' W 159°26'2 1.0 27.3
2014-Oct-13 16:48S 17°00' W 159°26'0 3.7 27.3
2014-Oct-13 16:41S 16°60' W 159°25'0 0.0 27.3
2014-Oct-13 16:13S 16°60' W 159°25'1 1.1 27.4
2014-Oct-13 15:05S 16°59' W 159°25'0 0.0 27.4
2014-Oct-13 14:30S 16°59' W 159°25'3 7.3 27.4
2014-Oct-13 14:06S 16°56' W 159°26'0 0.0 27.4
2014-Oct-13 12:30S 16°56' W 159°26'0 0.0 27.5
2014-Oct-13 12:27S 16°56' W 159°26'0 0.0 27.5
2014-Oct-13 10:46S 16°56' W 159°26'2 1.3 27.6
2014-Oct-13 08:59S 16°54' W 159°28'1 1.4 27.6
2014-Oct-13 08:13S 16°54' W 159°28'2 2.1 27.6
2014-Oct-13 07:22S 16°52' W 159°28'5 1.5 27.6
2014-Oct-13 04:16S 16°48' W 159°30'0 1.2 27.8
2014-Oct-13 04:03S 16°47' W 159°30'0 3.7 27.8
2014-Oct-13 03:59S 16°48' W 159°30'3 4.5 27.8
2014-Oct-13 03:15S 16°44' W 159°29'0 0.0 27.8
2014-Oct-13 03:11S 16°44' W 159°29'0 0.0 27.8
2014-Oct-13 01:38S 16°44' W 159°29'1 2.2 27.9
2014-Oct-13 01:16S 16°44' W 159°30'0 0.0 27.9
2014-Oct-13 01:11S 16°44' W 159°30'2 1.2 27.9
2014-Oct-12 23:29S 16°42' W 159°29'2 0.7 27.8
2014-Oct-12 20:29S 16°40' W 159°30'0 0.5 27.7
2014-Oct-12 19:43S 16°39' W 159°30'0 0.6 27.6
2014-Oct-12 18:53S 16°39' W 159°30'0 3.8 27.6
2014-Oct-12 18:50S 16°39' W 159°30'2 1.0 27.6
2014-Oct-12 17:11S 16°38' W 159°31'0 0.0 27.6
2014-Oct-12 16:24S 16°38' W 159°31'1 0.7 27.6
2014-Oct-12 15:30S 16°37' W 159°32'0 0.0 27.7
2014-Oct-12 14:45S 16°37' W 159°32'0 0.0
2014-Oct-12 14:44S 16°37' W 159°32'0 0.0 27.7
2014-Oct-12 14:16S 16°37' W 159°32'0 0.0 27.7
2014-Oct-12 13:51S 16°37' W 159°32'2 2.2 27.7
2014-Oct-12 13:01S 16°36' W 159°33'2 0.9 27.7
2014-Oct-12 10:57S 16°34' W 159°33'0 0.2 27.7
2014-Oct-12 08:30S 16°33' W 159°33'1 0.8 27.7
2014-Oct-12 07:45S 16°33' W 159°34'0 0.0 27.8
2014-Oct-12 07:44S 16°33' W 159°34'0 0.1 27.8
2014-Oct-12 06:49S 16°33' W 159°34'1 0.6 27.8
2014-Oct-12 05:09S 16°33' W 159°35'1 2.0 27.9
2014-Oct-12 04:45S 16°33' W 159°35'1 2.6 27.9
2014-Oct-12 04:27S 16°33' W 159°35'1 0.8 27.9
2014-Oct-12 03:29S 16°33' W 159°35'1 3.6 27.9
2014-Oct-12 03:08S 16°32' W 159°36'0 0.0 27.9
2014-Oct-12 02:43S 16°32' W 159°36'0 0.0 28.0
2014-Oct-12 01:50S 16°32' W 159°36'0 1.2 28.0
2014-Oct-12 01:27S 16°32' W 159°37'0 1.2 28.0
2014-Oct-12 01:24S 16°32' W 159°37'1 0.9 28.0
2014-Oct-11 23:45S 16°31' W 159°38'2 0.8 27.9
2014-Oct-11 20:49S 16°29' W 159°39'0 0.0 27.8
2014-Oct-11 20:46S 16°29' W 159°39'   27.8

Dump ship's entire track history